LIRALIBP

Guest
Details From LIRA - Ciampino
To LIBP - Pescara
Flight Number -
Tags Generated
Created
Modified
Stats Distance 80 nm / 148 km
Max Altitude 0 ft / 0 m
Waypoints 2
Social Downloads 0
Likes 0
Share VATSIM

Download

Looking for another format? Having issues loading an existing format? Contact us
Advertisement - Login to hide

Notes

Generated

Route

LIRA LIBP

ID Type Via Altitude Latitude Longitude Leg Dist Tot Dist Heading (true) Name
O LIRA APT - 0 ft / 0 m 41.80806˚ 12.58883˚ - 0 nm - -
O LIBP APT - 0 ft / 0 m 42.42261˚ 14.17399˚ 79 nm 79 nm 62° / 63° -

Altitude Profile

Advertisement - Login to hide

LIRA

Details ICAO LIRA (CIA)
Name CIAMPINO
Region Italy
Timezone Europe/Rome (UTC+2.0)
Stats Elevation 427 ft / 130 m (AMSL)
Location 41.799228° 12.594917°
Runways 1
Magnetic Variation 3.104° E

METAR

LIRA 250350Z 05002KT 8000 NSC 16/15 Q1015

Decode

TAF

TAF LIRA 242300Z 2500/2524 VRB05KT 9999 FEW030 TEMPO 2501/2505 1500 BCFG BKN006

Decode

Departure Runways

ID Width Length Bearing (true) Bearing (mag) Surface Threshold Offset Overrun Length
15 154 ft / 47 m 7,246 ft / 2,209 m 152.79° 149.69° Asphalt 0 ft / 0 m 0 ft / 0 m
33 154 ft / 47 m 7,246 ft / 2,209 m 332.80° 329.70° Asphalt 0 ft / 0 m 0 ft / 0 m

LIBP

Details ICAO LIBP (PSR)
Name PESCARA
Region Italy
Timezone Europe/Rome (UTC+2.0)
Stats Elevation 48 ft / 15 m (AMSL)
Location 42.431257° 14.183030°
Runways 1
Magnetic Variation 3.428° E

METAR

LIBP 250350Z AUTO 21005KT 9999 NCD 16/16 Q1015

Decode

TAF

TAF LIBP 242300Z 2500/2524 VRB05KT 9999 FEW030 BECMG 2508/2410 03010KT BECMG 2516/2518 VRB05KT

Decode

Destination Runways

ID Width Length Bearing (true) Bearing (mag) Surface Threshold Offset Overrun Length
04 148 ft / 45 m 7,943 ft / 2,421 m 37.19° 33.76° Asphalt 344 ft / 105 m 0 ft / 0 m
22 148 ft / 45 m 7,943 ft / 2,421 m 217.21° 213.78° Asphalt 617 ft / 188 m 0 ft / 0 m

Approach Navaids

Runway Type Ident Frequency Range Bearing (true) Bearing (mag) Slope Elevation
22 Localiser IPS 110.70 MHz 18 nm / 33 km 217.39° 213.96° - 48 ft / 15 m (AMSL)
22 Glidescope IPS 110.70 MHz 10 nm / 19 km 217.20° 213.77° 3.00° 48 ft / 15 m (AMSL)
22 DME IPS 110.70 MHz 18 nm / 33 km - - - 48 ft / 15 m (AMSL)

Popular Alternatives